Time;durP1;ratioP1;P1;durP2;ratioP2;P2;SDS_P1;SDS_P2;PMS_P1;PMS_P2;Temp;Humidity;BMP_temperature;BMP_pressure;BME280_temperature;BME280_humidity;BME280_pressure;Samples;Min_cycle;Max_cycle;Signal;HPM_P1;HPM_P2
2021/04/03 00:02:14;;;;;;;21.52;6.90;;;6.80;85.90;;;;;;5029987;28;20029;-83
2021/04/03 00:04:40;;;;;;;17.02;6.28;;;6.80;86.10;;;;;;5046679;28;20488;-85
2021/04/03 00:07:06;;;;;;;16.13;6.95;;;6.70;86.30;;;;;;5046799;28;20061;-83
2021/04/03 00:09:32;;;;;;;10.65;6.47;;;6.70;86.60;;;;;;5013462;28;20037;-84
2021/04/03 00:11:58;;;;;;;18.95;7.72;;;6.70;86.80;;;;;;5030595;28;20110;-84
2021/04/03 00:14:23;;;;;;;17.92;7.22;;;6.70;87.10;;;;;;5048075;28;20021;-84
2021/04/03 00:16:49;;;;;;;21.45;7.60;;;6.70;87.20;;;;;;5029879;28;20029;-85
2021/04/03 00:19:15;;;;;;;15.18;6.43;;;6.70;87.40;;;;;;5046372;28;20029;-84
2021/04/03 00:21:40;;;;;;;13.50;6.68;;;6.60;87.40;;;;;;5013516;28;20029;-84
2021/04/03 00:24:07;;;;;;;15.15;7.03;;;6.60;87.50;;;;;;5013304;28;20033;-85
2021/04/03 00:26:33;;;;;;;11.85;6.80;;;6.60;87.70;;;;;;5029758;28;20040;-85
2021/04/03 00:28:58;;;;;;;14.57;6.47;;;6.50;87.80;;;;;;5047329;28;20053;-84
2021/04/03 00:31:24;;;;;;;14.80;7.90;;;6.50;88.10;;;;;;5029714;28;20036;-83
2021/04/03 00:33:51;;;;;;;14.57;8.18;;;6.40;88.50;;;;;;5013174;28;20029;-84
2021/04/03 00:36:17;;;;;;;22.42;8.70;;;6.30;88.90;;;;;;5029845;28;20075;-84
2021/04/03 00:38:43;;;;;;;17.35;9.05;;;6.20;89.50;;;;;;5029323;28;20196;-84
2021/04/03 00:41:09;;;;;;;18.33;7.93;;;6.20;89.90;;;;;;5047497;28;20029;-85
2021/04/03 00:43:35;;;;;;;9.48;6.50;;;6.20;90.00;;;;;;5046223;28;20033;-85
2021/04/03 00:46:00;;;;;;;12.13;5.93;;;6.20;90.00;;;;;;5029790;28;20025;-85
2021/04/03 00:48:26;;;;;;;14.85;6.45;;;6.10;90.00;;;;;;5046141;28;20025;-83
2021/04/03 00:50:53;;;;;;;10.93;6.22;;;6.10;90.00;;;;;;5016581;28;20379;-83
2021/04/03 00:53:23;;;;;;;16.52;6.93;;;6.10;90.00;;;;;;5033117;28;20497;-83
2021/04/03 00:55:49;;;;;;;13.30;6.78;;;6.10;90.00;;;;;;5049559;28;20086;-85
2021/04/03 00:58:16;;;;;;;17.67;7.88;;;6.10;90.00;;;;;;5032778;28;20040;-82
2021/04/03 01:00:42;;;;;;;16.52;7.82;;;6.10;90.00;;;;;;5049857;28;20613;-83
2021/04/03 01:03:08;;;;;;;14.98;8.02;;;6.00;90.10;;;;;;5049662;28;20365;-85
2021/04/03 01:05:34;;;;;;;15.82;8.38;;;6.00;90.20;;;;;;5033035;28;20115;-85
2021/04/03 01:08:00;;;;;;;14.20;7.38;;;6.00;90.20;;;;;;5049422;28;20033;-85
2021/04/03 01:10:30;;;;;;;21.88;9.43;;;6.00;90.30;;;;;;5049402;28;20383;-83
2021/04/03 01:13:01;;;;;;;16.23;9.13;;;6.00;90.50;;;;;;5050654;28;20029;-84
2021/04/03 01:16:06;;;;;;;13.65;8.45;;;6.00;90.60;;;;;;5050638;28;20025;-83
2021/04/03 01:18:50;;;;;;;14.35;7.95;;;6.00;90.70;;;;;;5049827;28;20392;-84
2021/04/03 01:21:41;;;;;;;15.77;8.23;;;6.00;90.60;;;;;;5049408;28;20020;-86
2021/04/03 01:24:31;;;;;;;14.88;8.23;;;6.00;90.60;;;;;;5049123;28;20025;-85
2021/04/03 01:27:23;;;;;;;11.77;7.38;;;6.00;90.60;;;;;;5050631;28;20049;-84
2021/04/03 01:30:13;;;;;;;11.25;7.65;;;6.00;90.60;;;;;;5048871;28;20141;-84
2021/04/03 01:32:49;;;;;;;16.10;9.00;;;6.00;90.60;;;;;;5049864;28;20040;-85
2021/04/03 01:35:24;;;;;;;13.23;8.63;;;5.90;90.70;;;;;;5049240;28;20024;-84
2021/04/03 01:37:57;;;;;;;17.10;8.50;;;5.90;90.80;;;;;;5048915;28;20052;-83
2021/04/03 01:40:24;;;;;;;13.52;7.78;;;5.90;90.80;;;;;;5048932;28;20021;-85
2021/04/03 01:42:57;;;;;;;13.38;9.25;;;5.90;90.80;;;;;;5048727;28;20082;-84
2021/04/03 01:45:24;;;;;;;17.35;9.50;;;5.90;90.90;;;;;;5049343;28;20036;-86
2021/04/03 01:47:51;;;;;;;15.60;8.90;;;5.90;91.00;;;;;;5050573;28;20471;-85
2021/04/03 01:50:19;;;;;;;15.23;7.70;;;5.80;91.00;;;;;;5049723;28;20405;-83
2021/04/03 01:52:46;;;;;;;15.27;8.10;;;5.80;91.10;;;;;;5048720;28;20032;-82
2021/04/03 01:55:13;;;;;;;12.65;9.10;;;5.80;91.10;;;;;;5048842;28;20487;-86
2021/04/03 01:57:45;;;;;;;13.07;9.35;;;5.80;91.10;;;;;;5031914;28;20391;-85
2021/04/03 02:00:13;;;;;;;13.98;8.85;;;5.80;91.10;;;;;;5048247;28;20472;-84
2021/04/03 02:02:40;;;;;;;14.45;9.70;;;5.70;91.10;;;;;;5048805;28;20056;-84
2021/04/03 02:05:10;;;;;;;13.02;9.23;;;5.70;91.10;;;;;;5031957;28;20033;-83
2021/04/03 02:07:38;;;;;;;17.25;10.40;;;5.70;91.20;;;;;;5048490;28;20021;-86
2021/04/03 02:10:06;;;;;;;23.27;10.80;;;5.70;91.20;;;;;;5048384;28;20430;-84
2021/04/03 02:12:37;;;;;;;16.10;10.55;;;5.70;91.40;;;;;;5048444;28;20025;-85
2021/04/03 02:15:08;;;;;;;17.08;10.23;;;5.70;91.30;;;;;;5048333;28;20021;-84
2021/04/03 02:17:35;;;;;;;15.27;9.75;;;5.60;91.30;;;;;;5048370;28;20029;-86
2021/04/03 02:20:03;;;;;;;15.18;9.32;;;5.70;91.30;;;;;;5031830;28;20509;-83
2021/04/03 02:22:29;;;;;;;17.15;10.10;;;5.60;91.40;;;;;;5049643;28;20035;-85
2021/04/03 02:24:56;;;;;;;13.68;9.35;;;5.60;91.40;;;;;;5031786;28;20033;-86
2021/04/03 02:27:22;;;;;;;18.52;9.25;;;5.60;91.40;;;;;;5031379;28;20518;-84
2021/04/03 02:29:48;;;;;;;17.42;9.38;;;5.60;91.50;;;;;;5031578;28;20060;-83
2021/04/03 02:32:13;;;;;;;17.17;9.73;;;5.60;91.50;;;;;;5048155;28;20476;-84
2021/04/03 02:34:39;;;;;;;21.85;9.80;;;5.60;91.60;;;;;;5031588;28;20021;-86
2021/04/03 02:37:05;;;;;;;16.75;9.43;;;5.60;91.70;;;;;;5048095;28;20074;-86
2021/04/03 02:39:31;;;;;;;14.25;9.00;;;5.60;91.70;;;;;;5048136;28;20052;-87
2021/04/03 02:42:08;;;;;;;17.42;9.40;;;5.60;91.80;;;;;;5031760;28;20056;-86
2021/04/03 02:44:58;;;;;;;18.08;9.10;;;5.60;91.80;;;;;;5049460;28;20032;-86
2021/04/03 02:47:37;;;;;;;16.42;9.32;;;5.60;91.80;;;;;;5049411;28;20044;-87
2021/04/03 02:50:13;;;;;;;15.88;9.27;;;5.60;91.70;;;;;;5047775;28;20431;-85
2021/04/03 02:52:40;;;;;;;14.57;9.55;;;5.60;91.70;;;;;;5048925;28;20113;-86
2021/04/03 02:55:07;;;;;;;21.92;9.43;;;5.50;91.70;;;;;;5031212;28;20025;-83
2021/04/03 02:57:34;;;;;;;19.95;10.20;;;5.50;91.80;;;;;;5031373;28;20036;-83
2021/04/03 03:00:03;;;;;;;21.30;9.80;;;5.40;91.80;;;;;;5047432;28;20095;-85
2021/04/03 03:02:30;;;;;;;16.73;9.00;;;5.40;91.90;;;;;;5047614;28;20496;-85
2021/04/03 03:04:57;;;;;;;15.13;9.35;;;5.40;92.00;;;;;;5047207;28;20049;-85
2021/04/03 03:07:24;;;;;;;18.38;9.48;;;5.40;92.00;;;;;;5047317;28;20033;-81
2021/04/03 03:09:51;;;;;;;21.35;9.23;;;5.50;92.10;;;;;;5046957;28;20480;-82
2021/04/03 03:12:21;;;;;;;15.65;9.75;;;5.40;92.10;;;;;;5030182;28;20484;-85
2021/04/03 03:14:49;;;;;;;15.63;9.25;;;5.40;92.00;;;;;;5046846;28;20111;-83
2021/04/03 03:17:15;;;;;;;23.27;9.80;;;5.40;92.00;;;;;;5046846;28;20495;-86
2021/04/03 03:19:41;;;;;;;14.65;8.18;;;5.50;92.00;;;;;;5046964;28;20051;-83
2021/04/03 03:22:08;;;;;;;18.33;7.45;;;5.40;92.00;;;;;;5046960;28;20035;-85
2021/04/03 03:24:34;;;;;;;20.95;7.80;;;5.40;92.10;;;;;;5013913;28;20029;-85
2021/04/03 03:27:02;;;;;;;15.15;8.80;;;5.40;92.10;;;;;;5048343;28;20480;-85
2021/04/03 03:29:30;;;;;;;12.50;7.60;;;5.40;92.10;;;;;;5046633;28;20091;-83
2021/04/03 03:31:56;;;;;;;14.15;7.55;;;5.40;92.10;;;;;;5030800;28;20459;-84
2021/04/03 03:34:22;;;;;;;21.48;8.85;;;5.40;92.10;;;;;;5048498;28;20079;-83
2021/04/03 03:36:49;;;;;;;16.55;8.35;;;5.40;92.20;;;;;;5047121;28;20029;-83
2021/04/03 03:39:15;;;;;;;17.30;9.38;;;5.40;92.20;;;;;;5046785;28;20431;-85
2021/04/03 03:41:41;;;;;;;14.63;8.55;;;5.40;92.20;;;;;;5030231;28;20033;-86
2021/04/03 03:44:09;;;;;;;18.13;9.02;;;5.30;92.20;;;;;;5046646;28;20029;-86
2021/04/03 03:46:35;;;;;;;15.20;8.93;;;5.20;92.30;;;;;;5048319;28;20375;-84
2021/04/03 03:49:02;;;;;;;19.75;9.23;;;5.20;92.60;;;;;;5030250;28;20029;-84
2021/04/03 03:51:28;;;;;;;17.23;8.90;;;5.10;92.50;;;;;;5047893;28;20473;-83
2021/04/03 03:53:55;;;;;;;17.88;9.50;;;5.10;92.60;;;;;;5047654;28;20036;-83
2021/04/03 03:56:20;;;;;;;18.13;8.98;;;5.00;92.70;;;;;;5047829;28;20386;-85
2021/04/03 03:58:46;;;;;;;19.13;8.32;;;5.00;92.80;;;;;;5013648;28;20168;-84
2021/04/03 04:01:12;;;;;;;18.40;8.82;;;5.00;92.80;;;;;;5013740;28;20162;-83
2021/04/03 04:03:38;;;;;;;19.95;8.45;;;5.00;92.80;;;;;;5046510;28;20074;-85
2021/04/03 04:06:04;;;;;;;17.10;8.55;;;5.10;92.80;;;;;;5046431;28;20040;-85
2021/04/03 04:08:30;;;;;;;20.23;8.35;;;5.10;92.90;;;;;;5046440;28;20036;-83
2021/04/03 04:10:56;;;;;;;15.75;8.23;;;5.10;92.80;;;;;;5029869;28;20029;-86
2021/04/03 04:13:22;;;;;;;19.13;8.05;;;5.10;92.80;;;;;;5046507;28;20032;-85
2021/04/03 04:15:48;;;;;;;19.00;8.98;;;5.10;92.70;;;;;;5029986;28;20099;-84
2021/04/03 04:18:14;;;;;;;12.60;7.80;;;5.10;92.70;;;;;;5030005;28;20056;-85
2021/04/03 04:20:40;;;;;;;15.13;9.23;;;5.10;92.70;;;;;;5029752;28;20033;-85
2021/04/03 04:23:06;;;;;;;14.77;7.68;;;5.10;92.60;;;;;;5048445;28;20381;-86
2021/04/03 04:25:31;;;;;;;23.30;9.05;;;5.00;92.60;;;;;;5033730;28;20039;-84
2021/04/03 04:27:57;;;;;;;11.32;7.60;;;5.00;92.70;;;;;;5016912;28;20033;-84
2021/04/03 04:30:23;;;;;;;19.70;8.32;;;5.00;92.70;;;;;;5049954;28;20506;-85
2021/04/03 04:32:49;;;;;;;20.55;8.88;;;4.90;92.60;;;;;;5051227;28;20025;-85
2021/04/03 04:35:15;;;;;;;15.15;8.07;;;4.90;92.70;;;;;;5033607;28;20028;-84
2021/04/03 04:37:42;;;;;;;18.15;9.68;;;4.80;92.70;;;;;;5033251;28;20127;-82
2021/04/03 04:40:10;;;;;;;18.60;9.45;;;4.80;92.60;;;;;;5050036;28;20064;-85
2021/04/03 04:42:42;;;;;;;17.17;8.50;;;4.80;92.70;;;;;;5050210;28;20067;-83
2021/04/03 04:45:09;;;;;;;13.82;7.60;;;4.80;92.70;;;;;;5033643;28;20033;-83
2021/04/03 04:47:35;;;;;;;15.00;8.93;;;4.70;92.70;;;;;;5051049;28;20108;-86
2021/04/03 04:50:01;;;;;;;13.88;8.55;;;4.70;92.70;;;;;;5033101;28;20175;-84
2021/04/03 04:52:27;;;;;;;16.38;9.23;;;4.70;92.60;;;;;;5049741;28;20029;-83
2021/04/03 04:54:53;;;;;;;21.13;9.02;;;4.70;92.70;;;;;;5049475;28;20392;-83
2021/04/03 04:57:19;;;;;;;14.05;8.32;;;4.60;92.70;;;;;;5016744;28;20021;-82
2021/04/03 04:59:44;;;;;;;19.80;9.23;;;4.60;92.60;;;;;;5016639;28;20463;-83
2021/04/03 05:02:10;;;;;;;14.63;9.48;;;4.60;92.70;;;;;;5032941;28;20484;-82
2021/04/03 05:04:36;;;;;;;15.57;8.80;;;4.50;92.60;;;;;;5032991;28;20119;-85
2021/04/03 05:07:01;;;;;;;15.50;9.52;;;4.50;92.70;;;;;;5049584;28;20427;-83
2021/04/03 05:09:27;;;;;;;14.60;8.45;;;4.50;92.70;;;;;;5032649;28;20025;-83
2021/04/03 05:11:53;;;;;;;15.57;8.35;;;4.50;92.70;;;;;;5032623;28;20499;-85
2021/04/03 05:14:18;;;;;;;13.05;8.18;;;4.50;92.70;;;;;;5032660;28;20485;-84
2021/04/03 05:16:44;;;;;;;15.63;8.63;;;4.40;92.80;;;;;;5049076;28;20104;-84
2021/04/03 05:19:10;;;;;;;12.13;8.27;;;4.40;92.80;;;;;;5050155;28;20021;-84
2021/04/03 05:21:35;;;;;;;18.83;8.52;;;4.40;92.80;;;;;;5049088;28;20123;-84
2021/04/03 05:24:01;;;;;;;17.17;9.57;;;4.40;92.80;;;;;;5032599;28;20479;-85
2021/04/03 05:26:27;;;;;;;13.27;8.48;;;4.40;92.80;;;;;;5032672;28;20025;-84
2021/04/03 05:28:52;;;;;;;17.80;8.43;;;4.40;92.80;;;;;;5032383;28;20060;-85
2021/04/03 05:31:20;;;;;;;17.67;8.80;;;4.40;92.80;;;;;;5049108;28;20045;-84
2021/04/03 05:33:47;;;;;;;16.70;8.68;;;4.40;92.90;;;;;;5032864;28;20025;-83
2021/04/03 05:36:13;;;;;;;13.80;9.30;;;4.30;92.90;;;;;;5048167;28;20018;-85
2021/04/03 05:38:39;;;;;;;20.98;8.70;;;4.40;93.00;;;;;;5050210;28;20040;-84
2021/04/03 05:41:04;;;;;;;17.27;9.30;;;4.40;93.10;;;;;;5049271;28;20499;-84
2021/04/03 05:43:31;;;;;;;13.32;7.30;;;4.40;93.10;;;;;;5049216;28;20489;-84
2021/04/03 05:45:57;;;;;;;19.13;10.10;;;4.40;93.00;;;;;;5048868;28;20064;-84
2021/04/03 05:48:24;;;;;;;18.38;8.50;;;4.40;93.10;;;;;;5049498;28;20032;-85
2021/04/03 05:50:54;;;;;;;18.35;8.32;;;4.40;93.10;;;;;;5050283;28;20087;-82
2021/04/03 05:53:21;;;;;;;12.98;8.07;;;4.40;93.10;;;;;;5048839;28;20025;-82
2021/04/03 05:55:53;;;;;;;16.92;9.18;;;4.40;93.10;;;;;;5032126;28;20023;-84
2021/04/03 05:58:20;;;;;;;16.58;8.32;;;4.50;93.20;;;;;;5050040;28;20039;-83
2021/04/03 06:00:46;;;;;;;17.73;9.80;;;4.40;93.10;;;;;;5048516;28;20021;-83
2021/04/03 06:03:13;;;;;;;18.48;8.93;;;4.50;93.20;;;;;;5049868;28;20100;-84
2021/04/03 06:05:40;;;;;;;20.08;9.00;;;4.50;93.10;;;;;;5048685;28;20052;-84
2021/04/03 06:08:06;;;;;;;19.25;8.57;;;4.50;93.20;;;;;;5048326;28;20403;-82
2021/04/03 06:10:31;;;;;;;13.73;7.90;;;4.50;93.20;;;;;;5049805;28;20104;-84
2021/04/03 06:12:57;;;;;;;19.17;8.73;;;4.50;93.20;;;;;;5048604;28;20195;-84
2021/04/03 06:15:31;;;;;;;18.67;9.75;;;4.50;93.20;;;;;;5048754;28;20040;-85
2021/04/03 06:17:58;;;;;;;16.17;8.38;;;4.50;93.30;;;;;;5048248;28;20480;-85
2021/04/03 06:20:39;;;;;;;14.88;8.13;;;4.50;93.30;;;;;;5049783;28;20051;-84
2021/04/03 06:23:06;;;;;;;13.65;7.78;;;4.50;93.30;;;;;;5048192;28;20063;-84
2021/04/03 06:25:55;;;;;;;19.00;8.43;;;4.50;93.30;;;;;;5047934;28;20033;-83
2021/04/03 06:28:32;;;;;;;15.90;8.30;;;4.60;93.40;;;;;;5048232;28;20037;-83
2021/04/03 06:31:18;;;;;;;16.35;10.43;;;4.60;93.40;;;;;;5048026;28;20047;-84
2021/04/03 06:33:45;;;;;;;13.55;8.50;;;4.70;93.50;;;;;;5031292;28;20032;-82
2021/04/03 06:36:16;;;;;;;18.15;8.90;;;4.70;93.40;;;;;;5048834;28;20021;-85
2021/04/03 06:38:43;;;;;;;17.63;8.45;;;4.70;93.40;;;;;;5047664;28;20021;-83
2021/04/03 06:41:23;;;;;;;23.60;9.82;;;4.70;93.40;;;;;;5048943;28;20029;-83
2021/04/03 06:44:10;;;;;;;14.68;9.00;;;4.80;93.50;;;;;;5047604;28;20053;-83
2021/04/03 06:46:37;;;;;;;14.43;8.70;;;4.90;93.60;;;;;;5046580;28;20056;-84
2021/04/03 06:49:04;;;;;;;14.82;8.23;;;4.90;93.50;;;;;;5030607;28;20039;-83
2021/04/03 06:51:31;;;;;;;19.73;8.88;;;5.00;93.60;;;;;;5047342;28;20021;-82
2021/04/03 06:53:59;;;;;;;16.30;8.07;;;5.10;93.60;;;;;;5048926;28;20101;-83
2021/04/03 06:56:27;;;;;;;20.23;7.70;;;5.20;93.60;;;;;;5046980;28;20025;-83
2021/04/03 06:59:01;;;;;;;14.40;8.85;;;5.30;93.60;;;;;;5048777;28;20025;-84
2021/04/03 07:01:49;;;;;;;13.75;8.30;;;5.40;93.60;;;;;;5047641;28;20025;-83
2021/04/03 07:04:39;;;;;;;14.45;9.55;;;5.40;93.60;;;;;;5048911;28;20036;-85
2021/04/03 07:07:07;;;;;;;16.02;9.00;;;5.50;93.60;;;;;;5044078;28;20135;-83
2021/04/03 07:09:34;;;;;;;17.38;9.23;;;5.60;93.60;;;;;;5047291;28;20029;-84
2021/04/03 07:12:00;;;;;;;13.25;8.63;;;5.70;93.60;;;;;;5047213;28;20025;-86
2021/04/03 07:14:30;;;;;;;22.63;9.80;;;5.80;93.60;;;;;;5031016;28;20408;-84
2021/04/03 07:16:57;;;;;;;17.02;9.25;;;5.90;93.60;;;;;;5047129;28;20024;-85
2021/04/03 07:19:27;;;;;;;16.45;9.15;;;6.00;93.60;;;;;;5048016;28;20044;-83
2021/04/03 07:21:54;;;;;;;17.58;8.55;;;6.20;93.60;;;;;;5047189;28;20094;-84
2021/04/03 07:24:20;;;;;;;15.18;8.45;;;6.30;93.60;;;;;;5030471;28;20211;-83
2021/04/03 07:26:49;;;;;;;17.42;9.02;;;6.40;93.60;;;;;;5013956;28;20448;-84
2021/04/03 07:29:43;;;;;;;12.83;8.27;;;6.50;93.60;;;;;;5048131;28;20053;-84
2021/04/03 07:32:27;;;;;;;17.70;7.68;;;6.60;93.60;;;;;;5046740;28;20055;-84
2021/04/03 07:34:52;;;;;;;15.70;8.23;;;6.70;93.60;;;;;;5046698;28;20029;-83
2021/04/03 07:37:31;;;;;;;20.05;8.30;;;6.80;93.70;;;;;;5046517;28;20029;-84
2021/04/03 07:39:57;;;;;;;23.40;9.80;;;7.00;93.70;;;;;;5046492;28;20063;-82
2021/04/03 07:42:37;;;;;;;17.17;9.07;;;7.10;93.80;;;;;;5047854;28;20057;-84
2021/04/03 07:45:06;;;;;;;20.00;9.43;;;7.20;94.10;;;;;;5048096;28;20031;-86
2021/04/03 07:47:47;;;;;;;15.18;7.90;;;7.40;94.20;;;;;;5046468;28;20025;-84
2021/04/03 07:50:45;;;;;;;21.50;8.52;;;7.70;94.90;;;;;;5046557;28;20449;-83
2021/04/03 07:53:11;;;;;;;19.77;7.30;;;8.50;96.00;;;;;;5046307;28;20028;-85
2021/04/03 07:55:42;;;;;;;17.13;7.15;;;9.70;97.00;;;;;;5013368;28;20033;-83
2021/04/03 07:58:26;;;;;;;21.38;7.90;;;11.10;97.10;;;;;;5048560;28;20521;-85
2021/04/03 08:00:53;;;;;;;19.52;8.25;;;12.70;95.50;;;;;;5050050;28;20429;-87
2021/04/03 08:03:23;;;;;;;26.92;8.10;;;13.90;94.10;;;;;;5051831;28;20025;-85
2021/04/03 08:06:09;;;;;;;13.40;7.35;;;14.70;91.40;;;;;;5051599;28;20021;-84
2021/04/03 08:08:39;;;;;;;15.80;7.78;;;15.30;88.80;;;;;;5050150;28;20032;-84
2021/04/03 08:11:12;;;;;;;12.70;6.95;;;15.90;86.80;;;;;;5051292;28;20052;-84
2021/04/03 08:13:43;;;;;;;12.68;7.68;;;16.60;84.40;;;;;;5050802;28;20033;-83
2021/04/03 08:16:11;;;;;;;14.60;6.97;;;17.40;83.20;;;;;;5051138;28;20324;-81
2021/04/03 08:18:39;;;;;;;17.20;7.18;;;18.10;81.30;;;;;;5049751;28;20052;-83
2021/04/03 08:21:06;;;;;;;15.93;7.05;;;18.70;79.50;;;;;;5049531;28;20456;-81
2021/04/03 08:23:53;;;;;;;10.80;6.53;;;19.50;77.70;;;;;;5033028;28;20056;-82
2021/04/03 08:26:21;;;;;;;13.02;6.75;;;20.40;74.40;;;;;;5051132;28;20100;-84
2021/04/03 08:28:48;;;;;;;12.40;6.88;;;21.20;72.60;;;;;;5032517;28;20071;-82
2021/04/03 08:31:19;;;;;;;16.15;6.78;;;21.80;70.70;;;;;;5049312;28;20040;-84
2021/04/03 08:33:47;;;;;;;10.48;6.32;;;22.40;68.70;;;;;;5049419;28;20021;-82
2021/04/03 08:36:18;;;;;;;14.07;6.97;;;22.80;66.30;;;;;;5033375;28;20051;-83
2021/04/03 08:38:45;;;;;;;15.02;5.95;;;23.10;64.80;;;;;;5033520;28;20472;-83
2021/04/03 08:41:17;;;;;;;17.83;7.75;;;23.30;62.80;;;;;;5033202;28;20296;-84
2021/04/03 08:43:43;;;;;;;14.35;6.70;;;23.40;60.70;;;;;;5032961;28;20392;-85
2021/04/03 08:46:12;;;;;;;16.52;6.80;;;23.50;60.80;;;;;;5050645;28;20083;-85
2021/04/03 08:48:39;;;;;;;13.98;6.65;;;23.80;60.10;;;;;;5049279;28;20033;-84
2021/04/03 08:51:07;;;;;;;14.45;8.02;;;24.00;59.00;;;;;;5032465;28;20396;-81
2021/04/03 08:53:37;;;;;;;15.80;6.53;;;24.30;58.40;;;;;;5050244;28;20052;-83
2021/04/03 08:56:03;;;;;;;13.48;6.93;;;24.60;57.20;;;;;;5050410;28;20044;-82
2021/04/03 08:58:29;;;;;;;16.25;5.97;;;24.80;56.90;;;;;;5048981;28;20364;-82
2021/04/03 09:00:54;;;;;;;18.33;6.43;;;25.20;56.50;;;;;;5049304;28;20033;-83
2021/04/03 09:03:20;;;;;;;14.57;6.72;;;25.60;55.70;;;;;;5048695;28;20561;-82
2021/04/03 09:05:50;;;;;;;11.38;6.60;;;26.10;55.10;;;;;;5032152;28;20059;-82
2021/04/03 09:08:23;;;;;;;19.52;7.57;;;26.30;53.90;;;;;;5048699;28;20072;-84
2021/04/03 09:11:15;;;;;;;13.23;6.70;;;26.60;53.20;;;;;;5048696;28;20029;-84
2021/04/03 09:13:43;;;;;;;16.60;5.97;;;27.00;52.50;;;;;;5047524;28;20044;-82
2021/04/03 09:16:14;;;;;;;14.38;5.82;;;27.30;52.20;;;;;;5032545;28;20379;-84
2021/04/03 09:18:44;;;;;;;9.95;5.40;;;27.10;50.30;;;;;;5051298;28;20025;-84
2021/04/03 09:21:20;;;;;;;13.20;6.35;;;25.90;48.70;;;;;;5048866;28;20120;-82
2021/04/03 09:23:49;;;;;;;14.35;6.55;;;24.20;48.90;;;;;;5050439;28;20169;-84
2021/04/03 09:26:15;;;;;;;15.95;6.70;;;22.80;49.50;;;;;;5032477;28;20029;-82
2021/04/03 09:28:43;;;;;;;12.85;5.78;;;21.40;50.50;;;;;;5031485;28;20048;-84
2021/04/03 09:31:10;;;;;;;13.93;5.88;;;20.30;51.90;;;;;;5047981;28;20044;-82
2021/04/03 09:33:49;;;;;;;14.15;5.35;;;19.40;52.70;;;;;;5048377;28;20024;-85
2021/04/03 09:36:19;;;;;;;12.80;5.60;;;18.70;53.30;;;;;;5015452;28;20112;-83
2021/04/03 09:38:46;;;;;;;11.80;4.90;;;18.90;55.20;;;;;;5047980;28;20052;-82
2021/04/03 09:41:30;;;;;;;12.23;4.68;;;19.70;55.70;;;;;;5047785;28;20021;-82
2021/04/03 09:43:57;;;;;;;13.05;5.13;;;21.20;55.20;;;;;;5047885;28;20036;-86
2021/04/03 09:46:22;;;;;;;8.68;4.70;;;22.10;54.20;;;;;;5031574;28;20033;-84
2021/04/03 09:48:48;;;;;;;12.40;5.57;;;23.20;53.80;;;;;;5047687;28;20066;-84
2021/04/03 09:51:14;;;;;;;16.98;5.38;;;24.20;52.70;;;;;;5031054;28;20147;-86
2021/04/03 09:53:40;;;;;;;10.73;5.43;;;25.10;51.80;;;;;;5047934;28;20036;-85
2021/04/03 09:56:06;;;;;;;9.10;4.20;;;25.60;50.60;;;;;;5047732;28;20025;-82
2021/04/03 09:58:33;;;;;;;11.38;5.00;;;26.10;50.10;;;;;;5046991;28;20043;-81
2021/04/03 10:00:59;;;;;;;13.25;5.28;;;26.20;48.40;;;;;;5013901;28;20097;-83
2021/04/03 10:03:24;;;;;;;15.43;5.18;;;26.20;47.90;;;;;;5047008;28;20052;-77
2021/04/03 10:05:50;;;;;;;10.23;4.78;;;26.00;47.60;;;;;;5047079;28;20033;-81
2021/04/03 10:08:16;;;;;;;12.38;5.93;;;26.00;47.80;;;;;;5014700;28;20029;-82
2021/04/03 10:10:42;;;;;;;11.70;4.55;;;26.30;48.10;;;;;;5047420;28;20033;-84
2021/04/03 10:13:08;;;;;;;16.33;4.88;;;26.90;48.20;;;;;;5047650;28;20396;-82
2021/04/03 10:15:36;;;;;;;11.80;4.90;;;27.70;47.70;;;;;;5047344;28;20321;-82
2021/04/03 10:18:02;;;;;;;10.77;4.68;;;27.70;46.10;;;;;;5047156;28;20090;-84
2021/04/03 10:20:28;;;;;;;14.10;4.93;;;27.70;46.00;;;;;;5046566;28;20042;-83
2021/04/03 10:22:53;;;;;;;17.08;5.88;;;27.50;45.20;;;;;;5030563;28;20037;-84
2021/04/03 10:25:20;;;;;;;10.48;5.00;;;27.10;45.10;;;;;;5047408;28;20431;-85
2021/04/03 10:27:46;;;;;;;13.98;5.93;;;27.00;45.20;;;;;;5014101;28;20044;-82
2021/04/03 10:30:12;;;;;;;12.48;5.20;;;26.30;44.20;;;;;;5013872;28;20049;-83
2021/04/03 10:32:38;;;;;;;10.93;5.47;;;25.10;44.20;;;;;;5030991;28;20033;-82
2021/04/03 10:35:05;;;;;;;14.18;5.97;;;23.90;44.70;;;;;;5014346;28;20085;-82
2021/04/03 10:37:30;;;;;;;15.05;6.20;;;22.80;45.50;;;;;;5047378;28;20067;-83
2021/04/03 10:39:56;;;;;;;10.65;5.90;;;22.20;46.70;;;;;;5047041;28;20038;-82
2021/04/03 10:42:22;;;;;;;12.80;6.47;;;21.70;47.30;;;;;;5030106;28;20047;-82
2021/04/03 10:44:47;;;;;;;21.95;6.50;;;21.40;47.50;;;;;;5030183;28;20052;-82
2021/04/03 10:47:13;;;;;;;15.43;7.13;;;21.30;47.70;;;;;;5013368;28;20078;-83
2021/04/03 10:49:39;;;;;;;17.10;6.55;;;21.70;48.90;;;;;;5029851;28;20066;-82
2021/04/03 10:52:05;;;;;;;11.57;5.25;;;21.90;48.90;;;;;;5047140;28;20049;-82
2021/04/03 10:54:30;;;;;;;12.93;5.53;;;22.00;48.40;;;;;;5046878;28;20017;-81
2021/04/03 10:56:56;;;;;;;16.70;6.47;;;22.70;49.60;;;;;;5046121;28;20017;-84
2021/04/03 10:59:22;;;;;;;14.73;5.82;;;24.00;49.70;;;;;;5030001;28;20029;-86
2021/04/03 11:01:48;;;;;;;10.07;5.68;;;25.40;48.50;;;;;;5029830;28;20192;-84
2021/04/03 11:04:14;;;;;;;11.13;5.68;;;25.90;46.40;;;;;;5029932;28;20029;-83
2021/04/03 11:06:40;;;;;;;12.80;5.70;;;26.20;46.00;;;;;;5029630;28;20028;-83
2021/04/03 11:09:06;;;;;;;13.38;5.32;;;26.80;46.20;;;;;;5029390;28;20044;-82
2021/04/03 11:11:32;;;;;;;13.55;5.72;;;27.60;46.80;;;;;;5046708;28;20088;-85
2021/04/03 11:13:58;;;;;;;15.25;7.53;;;28.50;45.30;;;;;;5046998;28;20025;-82
2021/04/03 11:16:26;;;;;;;11.85;5.85;;;29.00;44.80;;;;;;5029200;28;20028;-84
2021/04/03 11:18:53;;;;;;;10.27;5.05;;;29.70;43.30;;;;;;5045211;28;20117;-82
2021/04/03 11:21:18;;;;;;;13.02;5.60;;;29.70;42.50;;;;;;5032112;28;20043;-83
2021/04/03 11:23:45;;;;;;;11.40;4.90;;;29.70;42.80;;;;;;5047745;28;20033;-81
2021/04/03 11:26:11;;;;;;;11.23;6.15;;;29.90;41.90;;;;;;5029978;28;20107;-84
2021/04/03 11:28:37;;;;;;;12.45;5.22;;;29.80;41.30;;;;;;5047331;28;20037;-85
2021/04/03 11:31:02;;;;;;;10.65;4.90;;;29.80;41.10;;;;;;5045904;28;20399;-83
2021/04/03 11:33:28;;;;;;;10.02;5.40;;;30.00;40.80;;;;;;5044688;28;20032;-86
2021/04/03 11:35:54;;;;;;;21.67;5.57;;;30.00;40.20;;;;;;5045590;28;20406;-85
2021/04/03 11:38:20;;;;;;;11.00;5.82;;;30.10;40.20;;;;;;5047369;28;20021;-84
2021/04/03 11:40:46;;;;;;;12.85;4.88;;;29.90;39.60;;;;;;5029513;28;20067;-83
2021/04/03 11:43:12;;;;;;;14.57;5.00;;;29.70;39.30;;;;;;5029228;28;20033;-79
2021/04/03 11:45:38;;;;;;;11.30;5.78;;;29.70;39.50;;;;;;5028847;28;20509;-84
2021/04/03 11:48:04;;;;;;;16.05;6.93;;;29.50;39.40;;;;;;5028960;28;20036;-84
2021/04/03 11:50:30;;;;;;;11.90;4.78;;;29.40;39.30;;;;;;5029141;28;20483;-85
2021/04/03 11:52:56;;;;;;;13.38;5.38;;;29.20;39.20;;;;;;5045169;28;20075;-83
2021/04/03 11:55:22;;;;;;;11.57;6.38;;;29.20;39.40;;;;;;5045259;28;20024;-85
2021/04/03 11:57:48;;;;;;;13.18;5.57;;;29.30;39.30;;;;;;5045728;28;20028;-83
2021/04/03 12:00:14;;;;;;;14.18;5.63;;;29.40;39.30;;;;;;5012603;28;20124;-83
2021/04/03 12:02:40;;;;;;;10.60;5.60;;;29.20;38.90;;;;;;5046950;28;20056;-85
2021/04/03 12:05:07;;;;;;;11.15;5.72;;;29.20;39.00;;;;;;5044838;28;20056;-83
2021/04/03 12:07:37;;;;;;;10.20;5.15;;;29.50;39.50;;;;;;5045272;28;20036;-86
2021/04/03 12:10:05;;;;;;;15.23;6.00;;;29.80;39.20;;;;;;5045296;28;20040;-83
2021/04/03 12:12:31;;;;;;;13.55;4.95;;;29.90;38.30;;;;;;5044602;28;20037;-83
2021/04/03 12:14:57;;;;;;;12.00;5.80;;;29.70;38.70;;;;;;5045808;28;20029;-83
2021/04/03 12:17:22;;;;;;;10.95;5.70;;;29.20;38.40;;;;;;5045412;28;20071;-82
2021/04/03 12:19:48;;;;;;;11.80;5.50;;;28.80;38.20;;;;;;5028591;28;20029;-80
2021/04/03 12:22:14;;;;;;;11.60;5.57;;;28.50;38.50;;;;;;5045103;28;20141;-84
2021/04/03 12:24:40;;;;;;;10.50;5.60;;;28.30;38.20;;;;;;5029243;28;20029;-85
2021/04/03 12:27:06;;;;;;;10.23;4.72;;;27.90;38.20;;;;;;5045643;28;20448;-84
2021/04/03 12:29:32;;;;;;;8.50;4.93;;;27.60;38.30;;;;;;5028689;28;20242;-83
2021/04/03 12:31:58;;;;;;;17.25;5.35;;;27.60;39.00;;;;;;5044957;28;20460;-85
2021/04/03 12:34:24;;;;;;;13.20;5.95;;;27.60;38.50;;;;;;5029184;28;20124;-86
2021/04/03 12:36:50;;;;;;;11.48;6.10;;;27.50;38.80;;;;;;5044836;28;20037;-82
2021/04/03 12:39:15;;;;;;;11.00;5.28;;;27.60;38.90;;;;;;5046659;28;20021;-84
2021/04/03 12:41:41;;;;;;;15.50;5.30;;;27.50;39.10;;;;;;5046849;28;20156;-83
2021/04/03 12:44:07;;;;;;;9.20;4.68;;;27.50;39.30;;;;;;5030237;28;20186;-84
2021/04/03 12:46:32;;;;;;;10.98;5.47;;;27.30;38.90;;;;;;5048748;28;20109;-85
2021/04/03 12:48:58;;;;;;;13.05;5.68;;;27.10;39.20;;;;;;5051276;28;20087;-85
2021/04/03 12:51:24;;;;;;;12.95;5.43;;;26.90;39.00;;;;;;5016025;28;20117;-87